Time;durP1;ratioP1;P1;durP2;ratioP2;P2;SDS_P1;SDS_P2;PMS_P1;PMS_P2;Temp;Humidity;BMP_temperature;BMP_pressure;BME280_temperature;BME280_humidity;BME280_pressure;Samples;Min_cycle;Max_cycle;Signal;HPM_P1;HPM_P2
2023/01/31 00:01:26;;;;;;;15.20;1.77;;;5.20;94.80;;;;;;4954996;28;20578;-64
2023/01/31 00:03:57;;;;;;;16.23;1.95;;;5.20;94.90;;;;;;4950859;28;20122;-65
2023/01/31 00:06:26;;;;;;;17.70;2.05;;;5.20;95.00;;;;;;4948283;28;20031;-65
2023/01/31 00:08:53;;;;;;;8.95;1.65;;;5.20;94.90;;;;;;4945197;28;20788;-64
2023/01/31 00:11:21;;;;;;;7.95;1.55;;;5.10;95.00;;;;;;4954919;28;20697;-65
2023/01/31 00:13:48;;;;;;;12.57;1.60;;;5.10;95.00;;;;;;4952611;28;20054;-65
2023/01/31 00:16:15;;;;;;;7.20;1.20;;;5.10;95.00;;;;;;4959711;28;20674;-65
2023/01/31 00:18:41;;;;;;;11.02;1.70;;;5.10;95.00;;;;;;4957666;28;20494;-65
2023/01/31 00:21:19;;;;;;;15.90;2.08;;;5.10;94.80;;;;;;4953805;28;20162;-65
2023/01/31 00:23:46;;;;;;;11.45;1.83;;;5.10;94.90;;;;;;4955781;28;20376;-64
2023/01/31 00:26:26;;;;;;;13.38;2.13;;;5.10;95.00;;;;;;4955258;28;20090;-65
2023/01/31 00:28:54;;;;;;;8.07;1.55;;;5.10;94.90;;;;;;4952532;28;20034;-64
2023/01/31 00:31:21;;;;;;;18.08;2.80;;;5.10;95.10;;;;;;4947148;28;20041;-64
2023/01/31 00:33:49;;;;;;;9.95;1.45;;;5.20;95.10;;;;;;4946322;28;20465;-64
2023/01/31 00:36:18;;;;;;;11.55;1.92;;;5.20;94.80;;;;;;4959467;28;20049;-66
2023/01/31 00:38:46;;;;;;;10.45;2.10;;;5.20;94.90;;;;;;4957944;28;20375;-64
2023/01/31 00:41:12;;;;;;;11.60;2.13;;;5.30;94.90;;;;;;4959368;28;20027;-64
2023/01/31 00:43:39;;;;;;;9.32;1.83;;;5.30;94.70;;;;;;4952025;28;20110;-64
2023/01/31 00:46:05;;;;;;;10.15;2.08;;;5.30;94.70;;;;;;4954501;28;20043;-67
2023/01/31 00:48:31;;;;;;;19.23;2.55;;;5.30;94.70;;;;;;4951520;28;20047;-67
2023/01/31 00:50:57;;;;;;;12.30;1.80;;;5.30;94.80;;;;;;4955299;28;20049;-68
2023/01/31 00:53:24;;;;;;;12.32;2.22;;;5.30;94.90;;;;;;4951896;28;20035;-68
2023/01/31 00:55:52;;;;;;;13.88;2.08;;;5.30;94.80;;;;;;4955493;28;20146;-70
2023/01/31 00:58:19;;;;;;;15.93;2.65;;;5.40;94.90;;;;;;4957811;28;20194;-68
2023/01/31 01:00:46;;;;;;;16.58;2.22;;;5.40;94.70;;;;;;4953481;28;20023;-67
2023/01/31 01:03:12;;;;;;;5.05;1.15;;;5.40;94.80;;;;;;4956276;28;20029;-67
2023/01/31 01:05:38;;;;;;;12.38;2.05;;;5.40;94.80;;;;;;4953455;28;20039;-67
2023/01/31 01:08:04;;;;;;;9.02;1.63;;;5.50;94.80;;;;;;4945471;28;20039;-67
2023/01/31 01:10:30;;;;;;;13.02;1.85;;;5.40;94.60;;;;;;4950573;28;20027;-67
2023/01/31 01:12:56;;;;;;;7.78;1.50;;;5.50;94.40;;;;;;4948490;28;20822;-67
2023/01/31 01:15:21;;;;;;;10.35;1.83;;;5.50;94.30;;;;;;4952701;28;20046;-68
2023/01/31 01:17:47;;;;;;;9.50;2.00;;;5.50;94.40;;;;;;4953156;28;20032;-67
2023/01/31 01:20:13;;;;;;;6.25;1.45;;;5.50;94.30;;;;;;4945302;28;20585;-68
2023/01/31 01:22:41;;;;;;;7.68;1.23;;;5.50;94.20;;;;;;4957812;28;20407;-67
2023/01/31 01:25:08;;;;;;;11.05;1.85;;;5.50;94.20;;;;;;4940994;28;20042;-68
2023/01/31 01:27:35;;;;;;;9.75;1.98;;;5.50;94.20;;;;;;4953459;28;20039;-67
2023/01/31 01:30:01;;;;;;;11.15;1.80;;;5.60;94.10;;;;;;4953953;28;20112;-67
2023/01/31 01:32:27;;;;;;;13.10;1.60;;;5.60;94.00;;;;;;4953972;28;20059;-67
2023/01/31 01:34:53;;;;;;;12.45;1.75;;;5.60;94.10;;;;;;4946464;28;20138;-67
2023/01/31 01:37:19;;;;;;;10.05;1.35;;;5.60;93.90;;;;;;4949012;28;20030;-67
2023/01/31 01:39:53;;;;;;;9.40;1.88;;;5.50;93.90;;;;;;4955963;28;20035;-67
2023/01/31 01:42:23;;;;;;;6.68;1.73;;;5.50;93.90;;;;;;4954939;28;20053;-67
2023/01/31 01:44:55;;;;;;;11.82;1.33;;;5.50;93.90;;;;;;4955117;28;20038;-68
2023/01/31 01:47:38;;;;;;;10.48;1.65;;;5.40;94.00;;;;;;4948729;28;20035;-67
2023/01/31 01:50:16;;;;;;;9.07;1.80;;;5.30;94.00;;;;;;4951398;28;20499;-67
2023/01/31 01:52:48;;;;;;;10.05;1.70;;;5.30;94.10;;;;;;4949943;28;20901;-67
2023/01/31 01:55:20;;;;;;;10.50;1.42;;;5.30;94.40;;;;;;4944234;28;20034;-67
2023/01/31 01:57:50;;;;;;;10.25;1.75;;;5.30;94.00;;;;;;4949528;28;20035;-67
2023/01/31 02:00:19;;;;;;;9.50;1.40;;;5.30;94.40;;;;;;4927819;28;20058;-67
2023/01/31 02:02:46;;;;;;;7.35;1.48;;;5.30;94.40;;;;;;4939061;28;20495;-68
2023/01/31 02:05:16;;;;;;;10.77;1.33;;;5.30;94.40;;;;;;4957248;28;20030;-67
2023/01/31 02:07:42;;;;;;;9.30;1.38;;;5.30;94.40;;;;;;4954011;28;20748;-67
2023/01/31 02:10:15;;;;;;;7.88;1.35;;;5.30;94.40;;;;;;4948649;28;20568;-67
2023/01/31 02:12:41;;;;;;;11.25;1.13;;;5.30;94.60;;;;;;4932049;28;20119;-67
2023/01/31 02:15:08;;;;;;;9.60;1.70;;;5.20;94.80;;;;;;4947654;28;20747;-67
2023/01/31 02:17:34;;;;;;;6.38;1.20;;;5.20;95.10;;;;;;4952851;28;20028;-67
2023/01/31 02:20:40;;;;;;;10.95;1.52;;;5.20;95.30;;;;;;4952059;28;20085;-67
2023/01/31 02:23:50;;;;;;;9.77;1.60;;;5.20;95.10;;;;;;4947254;28;20051;-67
2023/01/31 02:26:37;;;;;;;15.07;2.08;;;5.20;94.90;;;;;;4937162;28;20039;-67
2023/01/31 02:29:43;;;;;;;9.45;1.48;;;5.10;95.10;;;;;;4955615;28;20126;-68
2023/01/31 02:32:21;;;;;;;10.07;1.70;;;5.10;95.10;;;;;;4945166;28;20058;-67
2023/01/31 02:35:25;;;;;;;13.60;1.63;;;5.00;95.30;;;;;;4952286;28;20039;-67
2023/01/31 02:38:11;;;;;;;20.23;1.73;;;5.00;95.40;;;;;;4945565;28;20035;-68
2023/01/31 02:40:37;;;;;;;5.82;1.23;;;4.90;95.40;;;;;;4941248;28;20027;-68
2023/01/31 02:43:19;;;;;;;11.52;1.98;;;4.90;95.50;;;;;;4942537;28;20027;-67
2023/01/31 02:46:13;;;;;;;10.32;1.77;;;4.80;95.60;;;;;;4953237;28;20039;-67
2023/01/31 02:49:00;;;;;;;6.95;1.38;;;4.80;95.70;;;;;;4954074;28;20035;-67
2023/01/31 02:51:41;;;;;;;6.95;0.95;;;4.80;95.70;;;;;;4935160;28;20495;-67
2023/01/31 02:54:19;;;;;;;12.15;1.42;;;4.80;95.70;;;;;;4937057;28;20495;-67
2023/01/31 02:56:48;;;;;;;10.82;1.65;;;4.80;95.80;;;;;;4950924;28;20035;-67
2023/01/31 02:59:21;;;;;;;10.50;1.60;;;4.80;95.70;;;;;;4941844;28;20035;-67
2023/01/31 03:01:56;;;;;;;9.48;1.45;;;4.80;96.00;;;;;;4944165;28;20035;-67
2023/01/31 03:04:23;;;;;;;8.73;1.38;;;4.80;95.90;;;;;;4949052;28;20026;-68
2023/01/31 03:07:01;;;;;;;8.93;1.67;;;4.70;95.90;;;;;;4951509;28;20062;-68
2023/01/31 03:09:35;;;;;;;14.73;1.50;;;4.70;95.90;;;;;;4954429;28;20035;-67
2023/01/31 03:12:29;;;;;;;11.90;1.80;;;4.60;96.00;;;;;;4943163;28;20537;-68
2023/01/31 03:15:21;;;;;;;10.95;1.52;;;4.60;96.20;;;;;;4932658;28;20058;-67
2023/01/31 03:18:05;;;;;;;10.52;1.58;;;4.60;96.30;;;;;;4945835;28;20030;-68
2023/01/31 03:20:43;;;;;;;14.23;1.45;;;4.60;96.30;;;;;;4952106;28;20034;-67
2023/01/31 03:23:21;;;;;;;14.50;2.17;;;4.60;96.30;;;;;;4951779;28;20249;-67
2023/01/31 03:25:49;;;;;;;17.55;1.85;;;4.60;96.40;;;;;;4940612;28;20035;-68
2023/01/31 03:28:21;;;;;;;11.80;1.80;;;4.60;96.40;;;;;;4943292;28;20034;-68
2023/01/31 03:31:19;;;;;;;12.60;2.28;;;4.60;96.30;;;;;;4951064;28;20034;-67
2023/01/31 03:33:50;;;;;;;12.50;2.15;;;4.70;96.40;;;;;;4920422;28;20851;-67
2023/01/31 03:36:25;;;;;;;6.28;1.40;;;4.60;96.40;;;;;;4938847;28;20077;-67
2023/01/31 03:39:33;;;;;;;13.88;2.33;;;4.70;96.40;;;;;;4954178;28;20093;-67
2023/01/31 03:42:14;;;;;;;13.10;1.90;;;4.60;96.60;;;;;;4946161;28;20031;-68
2023/01/31 03:45:03;;;;;;;9.02;1.65;;;4.60;96.70;;;;;;4943289;28;20042;-67
2023/01/31 03:47:42;;;;;;;9.35;1.40;;;4.60;96.90;;;;;;4950822;28;20625;-67
2023/01/31 03:50:16;;;;;;;13.15;2.22;;;4.60;96.80;;;;;;4942336;28;20125;-67
2023/01/31 03:52:50;;;;;;;7.05;1.52;;;4.70;96.70;;;;;;4953915;28;20081;-68
2023/01/31 03:55:22;;;;;;;11.98;2.13;;;4.70;96.70;;;;;;4937071;28;20743;-67
2023/01/31 03:57:52;;;;;;;7.55;1.63;;;4.70;96.60;;;;;;4950867;28;20042;-67
2023/01/31 04:00:21;;;;;;;13.82;1.98;;;4.70;96.70;;;;;;4949637;28;20121;-67
2023/01/31 04:03:03;;;;;;;14.10;1.60;;;4.70;96.70;;;;;;4948158;28;20126;-67
2023/01/31 04:05:31;;;;;;;11.85;1.70;;;4.80;96.90;;;;;;4945007;28;20038;-70
2023/01/31 04:07:59;;;;;;;18.08;1.77;;;4.80;96.80;;;;;;4950279;28;20038;-67
2023/01/31 04:10:26;;;;;;;8.40;1.80;;;4.90;96.90;;;;;;4942739;28;20113;-69
2023/01/31 04:12:53;;;;;;;7.35;1.48;;;4.90;96.70;;;;;;4954138;28;20027;-68
2023/01/31 04:15:19;;;;;;;11.80;2.00;;;5.00;96.70;;;;;;4950375;28;20085;-66
2023/01/31 04:17:45;;;;;;;13.32;1.70;;;5.10;96.60;;;;;;4948040;28;20117;-68
2023/01/31 04:20:11;;;;;;;15.73;1.58;;;5.20;96.40;;;;;;4952733;28;20822;-67
2023/01/31 04:22:37;;;;;;;9.68;1.52;;;5.30;96.30;;;;;;4949514;28;20701;-67
2023/01/31 04:25:04;;;;;;;9.52;2.40;;;5.30;96.10;;;;;;4954556;28;20035;-67
2023/01/31 04:27:30;;;;;;;14.52;1.60;;;5.40;96.10;;;;;;4949835;28;20043;-67
2023/01/31 04:29:56;;;;;;;7.55;1.33;;;5.40;96.00;;;;;;4946474;28;20031;-67
2023/01/31 04:32:22;;;;;;;10.73;1.48;;;5.50;96.10;;;;;;4953520;28;20489;-68
2023/01/31 04:34:47;;;;;;;7.47;1.17;;;5.40;95.80;;;;;;4954169;28;20039;-68
2023/01/31 04:37:14;;;;;;;10.70;1.55;;;5.50;95.80;;;;;;4957621;28;20640;-67
2023/01/31 04:39:40;;;;;;;6.75;1.23;;;5.50;95.90;;;;;;4954970;28;20395;-68
2023/01/31 04:42:06;;;;;;;21.13;2.33;;;5.50;96.00;;;;;;4951482;28;20027;-68
2023/01/31 04:44:31;;;;;;;9.05;1.60;;;5.60;95.90;;;;;;4953870;28;20952;-68
2023/01/31 04:46:57;;;;;;;12.00;1.25;;;5.50;96.00;;;;;;4956345;28;20050;-67
2023/01/31 04:49:23;;;;;;;10.75;2.38;;;5.60;96.00;;;;;;4953484;28;20395;-67
2023/01/31 04:51:48;;;;;;;7.28;1.30;;;5.50;96.10;;;;;;4952493;28;20468;-69
2023/01/31 04:54:15;;;;;;;11.73;1.88;;;5.50;96.10;;;;;;4945202;28;20736;-69
2023/01/31 04:56:41;;;;;;;10.98;2.10;;;5.60;96.20;;;;;;4952674;28;20063;-67
2023/01/31 04:59:07;;;;;;;7.70;1.60;;;5.60;96.00;;;;;;4957780;28;20035;-69
2023/01/31 05:05:20;;;;;;;7.72;1.80;;;5.70;96.00;;;;;;4955875;28;20088;-67
2023/01/31 05:07:46;;;;;;;12.35;1.30;;;5.70;95.80;;;;;;4954231;28;20922;-66
2023/01/31 05:10:12;;;;;;;6.10;1.10;;;5.70;95.60;;;;;;4952663;28;20668;-67
2023/01/31 05:12:38;;;;;;;8.07;1.20;;;5.70;95.60;;;;;;4955792;28;20042;-68
2023/01/31 05:15:06;;;;;;;16.35;2.30;;;5.60;95.60;;;;;;4951221;28;20103;-68
2023/01/31 05:17:32;;;;;;;7.68;1.83;;;5.70;95.50;;;;;;4959040;28;20380;-68
2023/01/31 05:19:59;;;;;;;11.00;1.85;;;5.70;95.50;;;;;;4952404;28;20121;-68
2023/01/31 05:22:25;;;;;;;13.15;1.73;;;5.70;95.60;;;;;;4952181;28;20031;-68
2023/01/31 05:24:51;;;;;;;12.63;1.75;;;5.70;95.70;;;;;;4952010;28;20096;-68
2023/01/31 05:27:18;;;;;;;10.40;1.70;;;5.70;95.60;;;;;;4954961;28;20427;-67
2023/01/31 05:29:44;;;;;;;13.50;1.80;;;5.80;95.50;;;;;;4949984;28;20035;-69
2023/01/31 05:32:10;;;;;;;11.88;2.20;;;5.80;95.40;;;;;;4955329;28;20034;-68
2023/01/31 05:34:36;;;;;;;9.00;1.35;;;5.90;95.30;;;;;;4953163;28;20043;-67
2023/01/31 05:37:03;;;;;;;15.38;2.08;;;5.90;95.10;;;;;;4956763;28;20519;-68
2023/01/31 05:39:29;;;;;;;12.60;1.60;;;5.90;95.20;;;;;;4957107;28;20027;-68
2023/01/31 05:41:56;;;;;;;14.63;2.40;;;5.90;95.10;;;;;;4958314;28;20552;-67
2023/01/31 05:44:21;;;;;;;9.52;1.55;;;6.00;95.20;;;;;;4952798;28;20026;-68
2023/01/31 05:46:47;;;;;;;13.57;1.83;;;6.00;95.20;;;;;;4951913;28;20487;-68
2023/01/31 05:49:13;;;;;;;16.98;2.10;;;6.00;95.00;;;;;;4949844;28;20035;-68
2023/01/31 05:51:40;;;;;;;9.05;1.95;;;6.00;95.10;;;;;;4954417;28;20142;-67
2023/01/31 05:54:07;;;;;;;12.80;2.05;;;6.00;95.00;;;;;;4947018;28;20118;-67
2023/01/31 06:03:02;;;;;;;12.90;1.70;;;5.90;95.30;;;;;;4968851;28;21015;-65
2023/01/31 06:05:28;;;;;;;9.93;1.35;;;5.90;95.40;;;;;;4976763;28;20043;-64
2023/01/31 06:07:54;;;;;;;10.68;1.80;;;5.90;95.60;;;;;;4964320;28;20035;-67
2023/01/31 06:32:08;;;;;;;6.07;2.10;;;5.80;97.90;;;;;;5037024;23;20592;-69
2023/01/31 06:34:33;;;;;;;12.43;1.75;;;5.80;98.00;;;;;;4995884;28;20133;-67
2023/01/31 06:36:59;;;;;;;9.63;1.45;;;5.80;98.00;;;;;;4999830;28;20062;-65
2023/01/31 06:39:25;;;;;;;10.88;2.22;;;5.90;98.10;;;;;;4994480;28;20046;-65
2023/01/31 06:41:51;;;;;;;11.82;2.30;;;5.90;98.10;;;;;;4993100;28;20033;-66
2023/01/31 06:44:17;;;;;;;12.30;1.75;;;5.90;98.10;;;;;;4995395;28;20028;-66
2023/01/31 06:46:43;;;;;;;14.93;1.73;;;5.90;97.90;;;;;;4967173;28;20496;-70
2023/01/31 06:49:08;;;;;;;13.18;1.95;;;5.90;98.10;;;;;;4994411;28;20108;-69
2023/01/31 06:51:34;;;;;;;17.27;2.53;;;5.90;98.20;;;;;;4997676;28;20041;-69
2023/01/31 06:54:00;;;;;;;12.35;3.22;;;5.90;98.10;;;;;;4995708;28;20113;-68
2023/01/31 06:56:26;;;;;;;7.38;1.65;;;5.90;98.10;;;;;;4994411;28;20033;-68
2023/01/31 06:58:51;;;;;;;12.95;2.05;;;5.90;98.00;;;;;;4983412;28;20037;-69
2023/01/31 07:01:17;;;;;;;15.80;3.13;;;5.90;98.00;;;;;;4987588;28;20034;-69
2023/01/31 07:03:43;;;;;;;9.07;2.00;;;5.90;98.00;;;;;;4995115;28;20029;-68
2023/01/31 07:06:09;;;;;;;7.80;1.50;;;6.00;97.90;;;;;;4994907;28;20034;-68
2023/01/31 07:08:35;;;;;;;10.65;2.08;;;6.00;97.90;;;;;;4996070;28;20041;-68
2023/01/31 07:11:02;;;;;;;12.13;1.52;;;6.00;97.90;;;;;;5021386;28;20025;-68
2023/01/31 07:13:28;;;;;;;12.98;2.15;;;6.00;97.70;;;;;;5002918;28;20048;-69
2023/01/31 07:15:55;;;;;;;10.60;1.92;;;6.00;97.90;;;;;;5025028;28;20033;-69
2023/01/31 07:18:20;;;;;;;12.30;2.00;;;5.90;97.90;;;;;;5016504;28;20116;-66
2023/01/31 07:20:46;;;;;;;5.28;1.27;;;5.90;98.00;;;;;;5021064;28;20120;-67
2023/01/31 07:23:12;;;;;;;15.65;1.80;;;5.90;98.10;;;;;;5019403;28;20845;-69
2023/01/31 07:25:38;;;;;;;9.40;1.63;;;5.90;98.20;;;;;;5014611;28;20479;-69
2023/01/31 07:28:04;;;;;;;7.18;1.60;;;5.90;98.00;;;;;;5013574;28;20054;-69
2023/01/31 07:30:30;;;;;;;15.48;2.30;;;6.00;98.00;;;;;;4997191;28;20899;-69
2023/01/31 07:32:56;;;;;;;6.63;1.48;;;6.00;97.90;;;;;;5015309;28;20040;-68
2023/01/31 07:35:22;;;;;;;12.02;1.80;;;6.00;97.80;;;;;;5013479;28;20040;-69
2023/01/31 07:37:50;;;;;;;7.05;1.30;;;6.10;97.90;;;;;;5010363;28;20099;-69
2023/01/31 07:40:16;;;;;;;14.10;2.00;;;6.10;97.90;;;;;;5019267;28;20052;-69
2023/01/31 07:42:42;;;;;;;14.40;3.50;;;6.10;97.70;;;;;;5016716;28;20108;-69
2023/01/31 07:45:14;;;;;;;12.63;2.75;;;5.90;98.10;;;;;;5003054;28;20037;-68
2023/01/31 07:47:41;;;;;;;9.43;1.50;;;5.90;98.30;;;;;;5022897;28;20128;-68
2023/01/31 07:50:08;;;;;;;11.65;1.50;;;5.90;98.30;;;;;;5012985;28;20037;-68
2023/01/31 07:52:33;;;;;;;10.93;1.77;;;6.00;98.20;;;;;;5013880;28;20025;-69
2023/01/31 07:54:59;;;;;;;14.27;1.92;;;6.00;98.10;;;;;;5015630;28;20760;-68
2023/01/31 07:57:25;;;;;;;8.32;1.30;;;6.10;98.30;;;;;;5004708;28;20572;-68
2023/01/31 07:59:51;;;;;;;8.70;1.70;;;6.10;98.30;;;;;;5017717;28;20025;-68
2023/01/31 08:05:02;;;;;;;12.70;1.50;;;6.30;98.10;;;;;;5021593;28;20083;-68
2023/01/31 08:07:28;;;;;;;10.35;1.73;;;6.30;98.10;;;;;;5023643;28;20075;-68
2023/01/31 08:09:54;;;;;;;9.45;2.25;;;6.30;97.80;;;;;;5018067;28;20113;-68
2023/01/31 08:12:20;;;;;;;13.35;1.90;;;6.30;97.80;;;;;;5021055;28;20164;-68
2023/01/31 08:14:46;;;;;;;12.95;2.40;;;6.40;97.80;;;;;;5016965;28;20061;-68
2023/01/31 08:17:12;;;;;;;6.63;1.85;;;6.40;97.90;;;;;;5019540;28;20026;-68
2023/01/31 08:19:37;;;;;;;7.93;1.30;;;6.50;97.90;;;;;;5026612;28;20044;-68
2023/01/31 08:22:04;;;;;;;9.13;1.80;;;6.60;97.90;;;;;;5020494;28;20030;-68
2023/01/31 08:24:31;;;;;;;7.93;1.60;;;6.70;97.60;;;;;;5029412;28;20472;-67
2023/01/31 08:26:58;;;;;;;14.52;2.10;;;6.70;97.40;;;;;;5027756;28;20377;-68
2023/01/31 08:29:24;;;;;;;14.15;1.75;;;6.70;97.10;;;;;;5021716;28;20025;-67
2023/01/31 08:31:51;;;;;;;9.73;2.20;;;6.80;97.10;;;;;;5023222;28;20040;-67
2023/01/31 08:34:17;;;;;;;13.95;3.65;;;6.80;97.00;;;;;;5024236;28;20080;-67
2023/01/31 08:36:44;;;;;;;12.65;2.42;;;6.60;96.90;;;;;;5022762;28;20030;-69
2023/01/31 08:39:10;;;;;;;8.88;2.00;;;6.60;97.10;;;;;;5015714;28;20025;-68
2023/01/31 08:41:37;;;;;;;10.77;2.03;;;6.70;97.50;;;;;;5021003;28;20030;-68
2023/01/31 08:44:04;;;;;;;14.95;2.30;;;6.70;96.90;;;;;;5020880;28;20125;-68
2023/01/31 08:46:33;;;;;;;13.98;2.05;;;6.70;97.00;;;;;;5025956;28;20033;-67
2023/01/31 08:49:01;;;;;;;9.43;2.15;;;6.80;96.60;;;;;;5022933;28;20052;-68
2023/01/31 08:51:27;;;;;;;17.73;2.70;;;6.80;96.60;;;;;;5021585;28;20025;-68
2023/01/31 08:53:53;;;;;;;14.10;2.17;;;6.80;96.50;;;;;;5023811;28;20733;-68
2023/01/31 08:56:20;;;;;;;9.82;2.30;;;6.80;96.50;;;;;;5016472;28;20507;-69
2023/01/31 08:58:46;;;;;;;13.45;1.90;;;6.80;96.40;;;;;;5021039;28;20033;-67
2023/01/31 09:01:17;;;;;;;11.38;2.80;;;6.80;96.50;;;;;;5017505;28;20819;-68
2023/01/31 09:03:44;;;;;;;8.77;2.53;;;6.90;96.30;;;;;;5019598;28;20397;-67
2023/01/31 09:06:18;;;;;;;16.40;2.60;;;6.70;96.30;;;;;;5015410;28;20041;-68
2023/01/31 09:08:44;;;;;;;15.43;2.47;;;6.70;96.50;;;;;;5023052;28;20056;-68
2023/01/31 09:11:10;;;;;;;13.52;1.98;;;6.40;96.80;;;;;;5017014;28;20041;-67
2023/01/31 09:13:36;;;;;;;16.77;1.90;;;6.40;97.00;;;;;;5018008;28;20063;-66
2023/01/31 09:16:06;;;;;;;11.55;2.55;;;6.30;97.20;;;;;;5013476;28;20034;-66
2023/01/31 09:18:37;;;;;;;8.52;1.52;;;6.30;97.20;;;;;;5022247;28;20091;-67
2023/01/31 09:21:07;;;;;;;21.25;3.38;;;6.40;97.30;;;;;;5022507;28;20033;-67
2023/01/31 09:23:34;;;;;;;18.63;1.95;;;6.60;97.10;;;;;;5028260;28;20040;-68
2023/01/31 09:26:00;;;;;;;9.00;1.75;;;6.60;96.70;;;;;;5016736;28;20091;-68
2023/01/31 09:28:26;;;;;;;10.82;1.50;;;6.60;96.40;;;;;;5023133;28;20029;-68
2023/01/31 09:30:55;;;;;;;6.90;1.30;;;6.60;96.80;;;;;;5011559;28;20472;-68
2023/01/31 09:33:21;;;;;;;10.10;1.85;;;6.60;96.30;;;;;;5017791;28;20693;-67
2023/01/31 09:35:57;;;;;;;9.02;1.95;;;6.60;96.30;;;;;;5016868;28;20037;-67
2023/01/31 09:38:23;;;;;;;10.70;1.77;;;6.50;96.50;;;;;;5012992;28;20033;-68
2023/01/31 09:40:49;;;;;;;13.85;1.70;;;6.60;96.60;;;;;;5010643;28;20555;-66
2023/01/31 09:43:18;;;;;;;16.60;1.92;;;6.60;96.60;;;;;;5012339;28;20025;-67
2023/01/31 09:45:46;;;;;;;12.20;2.47;;;6.60;96.50;;;;;;5020593;28;20085;-67
2023/01/31 09:48:21;;;;;;;12.93;1.85;;;6.70;96.50;;;;;;5019364;28;20733;-67
2023/01/31 09:50:50;;;;;;;11.05;2.22;;;6.60;96.50;;;;;;5014969;28;20087;-67
2023/01/31 09:53:21;;;;;;;15.38;1.80;;;6.70;96.40;;;;;;5020347;28;20167;-67
2023/01/31 09:55:51;;;;;;;8.50;1.95;;;6.60;96.30;;;;;;5012754;28;20057;-67
2023/01/31 09:58:45;;;;;;;16.83;1.83;;;6.60;96.60;;;;;;5025727;28;20088;-67
2023/01/31 10:01:35;;;;;;;11.40;2.47;;;6.70;96.70;;;;;;5013346;28;20022;-67
2023/01/31 10:04:26;;;;;;;15.07;2.00;;;6.70;96.40;;;;;;5019138;28;20026;-67
2023/01/31 10:07:14;;;;;;;16.45;1.90;;;6.70;96.60;;;;;;5010504;28;20830;-67
2023/01/31 10:09:48;;;;;;;15.75;1.67;;;6.60;97.00;;;;;;5031855;28;20443;-67
2023/01/31 10:12:27;;;;;;;13.93;2.28;;;6.70;97.40;;;;;;5001168;28;20041;-65
2023/01/31 10:14:57;;;;;;;10.15;2.15;;;6.70;97.60;;;;;;5018952;28;20029;-67
2023/01/31 10:17:41;;;;;;;11.38;2.67;;;6.70;97.80;;;;;;5018732;28;20112;-67
2023/01/31 10:20:19;;;;;;;30.45;15.32;;;6.80;97.80;;;;;;5012268;28;20022;-67
2023/01/31 10:23:16;;;;;;;15.82;8.55;;;6.70;97.60;;;;;;5014040;28;20048;-66
2023/01/31 10:25:45;;;;;;;24.83;12.35;;;6.50;98.30;;;;;;5020884;28;20036;-67
2023/01/31 10:28:21;;;;;;;9.73;4.47;;;6.50;98.30;;;;;;5015599;28;20033;-67
2023/01/31 10:31:12;;;;;;;25.10;6.20;;;6.40;98.20;;;;;;5017303;28;20041;-71
2023/01/31 10:33:57;;;;;;;10.85;3.65;;;6.60;98.60;;;;;;5013965;28;20045;-67
2023/01/31 10:36:28;;;;;;;13.75;5.18;;;6.90;98.10;;;;;;5015218;28;20030;-68
2023/01/31 10:39:01;;;;;;;23.17;8.60;;;7.10;97.60;;;;;;5014182;28;20034;-67
2023/01/31 10:42:04;;;;;;;20.50;5.30;;;7.30;97.00;;;;;;5013562;28;20044;-67
2023/01/31 10:44:41;;;;;;;25.90;12.10;;;7.40;96.20;;;;;;5019586;28;20116;-67
2023/01/31 10:47:16;;;;;;;50.95;24.88;;;7.20;95.70;;;;;;5021150;28;20045;-67
2023/01/31 10:49:47;;;;;;;28.42;15.75;;;7.20;96.20;;;;;;5013642;28;20038;-67
2023/01/31 10:52:16;;;;;;;11.93;6.55;;;7.10;96.40;;;;;;5018441;28;20124;-67
2023/01/31 10:54:52;;;;;;;11.23;2.58;;;7.20;96.40;;;;;;5009492;28;20763;-66
2023/01/31 10:57:19;;;;;;;14.07;3.78;;;7.50;96.30;;;;;;5017218;28;20036;-67
2023/01/31 10:59:47;;;;;;;25.35;9.38;;;7.60;95.30;;;;;;5020810;28;20556;-67
2023/01/31 11:02:24;;;;;;;21.95;4.18;;;7.40;95.50;;;;;;5001277;28;20033;-67
2023/01/31 11:04:52;;;;;;;13.77;4.63;;;7.40;96.20;;;;;;5024291;28;20497;-67
2023/01/31 11:07:19;;;;;;;15.32;3.17;;;7.50;96.30;;;;;;5017090;28;20025;-67
2023/01/31 11:09:53;;;;;;;15.30;3.58;;;7.50;95.90;;;;;;5022014;28;20036;-67
2023/01/31 11:12:51;;;;;;;17.70;2.47;;;7.20;96.80;;;;;;5011536;28;20037;-67
2023/01/31 11:15:23;;;;;;;15.38;3.15;;;7.20;97.40;;;;;;5023805;28;20045;-66
2023/01/31 11:17:50;;;;;;;15.40;3.38;;;7.30;97.60;;;;;;5020502;28;20659;-67
2023/01/31 11:20:36;;;;;;;12.70;3.22;;;7.30;97.60;;;;;;5018034;28;20033;-67
2023/01/31 11:23:04;;;;;;;;;;;7.40;97.30;;;;;;5013392;28;20879;-67
2023/01/31 11:25:32;;;;;;;12.75;2.90;;;7.50;97.20;;;;;;5010833;28;20436;-67
2023/01/31 11:28:15;;;;;;;14.25;2.45;;;7.50;97.20;;;;;;5019740;28;20029;-67
2023/01/31 11:30:41;;;;;;;9.43;2.45;;;7.10;96.90;;;;;;5016012;28;20065;-67
2023/01/31 11:33:26;;;;;;;14.00;2.90;;;7.00;97.50;;;;;;5011211;28;20121;-67
2023/01/31 11:35:52;;;;;;;15.53;2.77;;;6.80;98.00;;;;;;5006331;28;20544;-70
2023/01/31 11:38:22;;;;;;;16.02;2.80;;;6.90;98.10;;;;;;5023364;28;20359;-66
2023/01/31 11:40:48;;;;;;;14.75;3.30;;;7.00;97.30;;;;;;5022268;28;20029;-67
2023/01/31 11:43:20;;;;;;;14.30;2.75;;;7.00;96.70;;;;;;5031628;28;20041;-67
2023/01/31 11:45:55;;;;;;;12.88;2.65;;;6.80;96.90;;;;;;5001952;28;20088;-68
2023/01/31 11:48:26;;;;;;;15.93;2.97;;;6.80;97.20;;;;;;5024437;28;20041;-67
2023/01/31 11:50:59;;;;;;;17.00;4.40;;;6.90;96.90;;;;;;5023219;28;20090;-66
2023/01/31 11:53:36;;;;;;;17.48;3.03;;;6.90;97.00;;;;;;5018863;28;20318;-67
2023/01/31 11:56:24;;;;;;;13.50;5.35;;;6.80;96.60;;;;;;5014370;28;20651;-66
2023/01/31 11:58:57;;;;;;;10.68;4.68;;;6.50;98.00;;;;;;5024785;28;20116;-66
2023/01/31 12:01:26;;;;;;;15.38;3.63;;;6.50;98.80;;;;;;5016894;28;20029;-67
2023/01/31 12:03:59;;;;;;;38.58;9.27;;;6.40;99.20;;;;;;5021485;28;20037;-66
2023/01/31 12:06:32;;;;;;;12.18;3.30;;;6.30;99.80;;;;;;5014041;28;20040;-67
2023/01/31 12:08:59;;;;;;;15.98;4.40;;;6.30;99.90;;;;;;5021172;28;20038;-68
2023/01/31 12:11:33;;;;;;;11.20;4.05;;;6.30;99.90;;;;;;5011146;28;20037;-66
2023/01/31 12:14:11;;;;;;;10.95;3.10;;;6.40;99.90;;;;;;5011619;28;20046;-66
2023/01/31 12:16:37;;;;;;;39.83;12.80;;;6.20;99.90;;;;;;5019579;28;20822;-66
2023/01/31 12:19:20;;;;;;;20.73;7.47;;;6.10;99.90;;;;;;5018880;28;20052;-67
2023/01/31 12:22:24;;;;;;;44.33;13.30;;;6.10;99.90;;;;;;5028737;28;20769;-67
2023/01/31 12:25:15;;;;;;;35.97;11.27;;;6.10;99.90;;;;;;5026959;28;20075;-67
2023/01/31 12:28:00;;;;;;;37.75;11.85;;;6.10;99.90;;;;;;5016079;28;20678;-67
2023/01/31 12:31:01;;;;;;;29.08;10.43;;;6.20;99.90;;;;;;5019503;28;20026;-68
2023/01/31 12:33:53;;;;;;;20.80;7.63;;;6.30;99.90;;;;;;5016951;28;20068;-67
2023/01/31 12:36:39;;;;;;;19.48;5.78;;;6.10;99.90;;;;;;5025324;28;20496;-68
2023/01/31 12:39:14;;;;;;;30.38;7.93;;;5.90;99.90;;;;;;5018789;28;20037;-65
2023/01/31 12:42:27;;;;;;;26.85;7.60;;;5.70;99.90;;;;;;5025291;28;20237;-66
2023/01/31 12:45:14;;;;;;;91.07;23.67;;;5.80;99.90;;;;;;5017060;28;20063;-66
2023/01/31 12:48:17;;;;;;;88.55;20.27;;;5.90;99.90;;;;;;5017404;28;20029;-67
2023/01/31 12:51:04;;;;;;;56.40;14.27;;;5.90;99.90;;;;;;5016568;28;20105;-67
2023/01/31 12:53:29;;;;;;;;;;;5.80;99.90;;;;;;5018650;28;20670;-67
2023/01/31 12:56:07;;;;;;;32.60;10.20;;;5.80;99.90;;;;;;5019684;28;19922;-66
2023/01/31 12:58:45;;;;;;;78.57;24.20;;;5.70;99.90;;;;;;5021904;28;20052;-67
2023/01/31 13:01:26;;;;;;;77.82;26.40;;;5.80;99.90;;;;;;5023399;28;20029;-65
2023/01/31 13:04:13;;;;;;;27.48;8.27;;;5.90;99.90;;;;;;5020130;28;20122;-67
2023/01/31 13:06:49;;;;;;;16.92;7.03;;;6.00;99.90;;;;;;5021934;28;20077;-66
2023/01/31 13:09:42;;;;;;;;;;;5.80;99.90;;;;;;5019626;28;20048;-66
2023/01/31 13:12:19;;;;;;;21.27;7.15;;;5.70;99.90;;;;;;5014499;28;20324;-67
2023/01/31 13:14:55;;;;;;;36.30;13.73;;;5.60;99.90;;;;;;5012695;28;20037;-67
2023/01/31 13:17:27;;;;;;;25.45;9.18;;;5.70;99.90;;;;;;5018498;28;20021;-67
2023/01/31 13:20:01;;;;;;;22.63;7.82;;;5.80;99.90;;;;;;5019908;28;20033;-66
2023/01/31 13:22:32;;;;;;;19.42;8.00;;;6.00;99.90;;;;;;5022947;28;20083;-66
2023/01/31 13:25:40;;;;;;;20.70;8.85;;;6.20;99.90;;;;;;5022102;28;20025;-67
2023/01/31 13:28:27;;;;;;;15.48;7.82;;;6.10;99.90;;;;;;4998277;28;20033;-67
2023/01/31 13:30:53;;;;;;;18.20;7.63;;;6.00;99.90;;;;;;5019293;28;20081;-67
2023/01/31 13:33:40;;;;;;;12.38;5.43;;;6.10;99.90;;;;;;5017059;28;20068;-68
2023/01/31 13:36:26;;;;;;;30.92;19.88;;;6.20;99.90;;;;;;5016791;28;20037;-67
2023/01/31 13:38:52;;;;;;;51.90;22.83;;;6.30;99.90;;;;;;5015469;28;20033;-67
2023/01/31 13:41:26;;;;;;;148.10;47.42;;;6.30;99.90;;;;;;5015609;28;20045;-66
2023/01/31 13:43:52;;;;;;;27.08;8.88;;;6.30;99.90;;;;;;5018022;28;20022;-67
2023/01/31 13:46:23;;;;;;;61.67;28.15;;;6.30;99.90;;;;;;5020957;28;20029;-67
2023/01/31 13:49:09;;;;;;;99.60;34.33;;;6.30;99.90;;;;;;5021511;28;20033;-67
2023/01/31 13:52:01;;;;;;;67.47;22.17;;;6.30;99.90;;;;;;5023708;28;20235;-66